createdAt,value
2023-05-17T00:01:01.350Z,6.60
2023-05-17T00:03:28.195Z,7.10
2023-05-17T00:05:55.160Z,6.60
2023-05-17T00:08:22.343Z,6.70
2023-05-17T00:10:49.124Z,7.20
2023-05-17T00:13:16.094Z,6.20
2023-05-17T00:15:42.918Z,6.60
2023-05-17T00:18:09.780Z,6.50
2023-05-17T00:20:36.897Z,6.30
2023-05-17T00:23:04.324Z,6.10
2023-05-17T00:25:31.448Z,6.30
2023-05-17T00:27:58.746Z,6.20
2023-05-17T00:30:25.657Z,5.80
2023-05-17T00:32:52.819Z,5.40
2023-05-17T00:35:19.964Z,5.40
2023-05-17T00:37:48.063Z,5.70
2023-05-17T00:40:16.085Z,5.90
2023-05-17T00:42:43.185Z,5.60
2023-05-17T00:45:11.015Z,5.40
2023-05-17T00:47:37.985Z,5.60
2023-05-17T00:50:05.876Z,5.70
2023-05-17T00:52:32.952Z,5.50
2023-05-17T00:54:59.846Z,5.00
2023-05-17T00:57:26.947Z,5.20
2023-05-17T00:59:55.452Z,5.70
2023-05-17T01:02:24.246Z,5.50
2023-05-17T01:04:51.325Z,5.70
2023-05-17T01:07:18.557Z,5.90
2023-05-17T01:09:46.862Z,5.30
2023-05-17T01:12:32.338Z,5.60
2023-05-17T01:15:19.758Z,4.80
2023-05-17T01:17:57.840Z,5.30
2023-05-17T01:20:34.064Z,4.70
2023-05-17T01:23:03.908Z,4.40
2023-05-17T01:25:36.979Z,4.60
2023-05-17T01:28:04.093Z,4.80
2023-05-17T01:30:31.377Z,4.00
2023-05-17T01:32:59.225Z,4.50
2023-05-17T01:35:26.918Z,4.30
2023-05-17T01:37:54.283Z,3.90
2023-05-17T01:40:21.417Z,4.50
2023-05-17T01:42:51.635Z,4.00
2023-05-17T01:45:31.790Z,4.30
2023-05-17T01:48:21.125Z,4.30
2023-05-17T01:50:51.057Z,4.30
2023-05-17T01:53:29.713Z,4.30
2023-05-17T01:56:08.933Z,4.30
2023-05-17T01:58:40.754Z,4.40
2023-05-17T02:01:07.674Z,4.50
2023-05-17T02:03:34.665Z,4.20
2023-05-17T02:06:01.776Z,4.00
2023-05-17T02:08:28.620Z,4.20
2023-05-17T02:10:55.472Z,4.40
2023-05-17T02:13:23.039Z,4.40
2023-05-17T02:15:49.905Z,4.80
2023-05-17T02:18:17.591Z,4.10
2023-05-17T02:20:46.498Z,4.30
2023-05-17T02:23:14.122Z,3.80
2023-05-17T02:25:41.071Z,3.70
2023-05-17T02:28:07.896Z,3.80
2023-05-17T02:30:35.526Z,4.00
2023-05-17T02:33:02.530Z,3.30
2023-05-17T02:35:29.576Z,3.90
2023-05-17T02:37:56.576Z,3.60
2023-05-17T02:40:23.451Z,3.30
2023-05-17T02:42:50.635Z,3.50
2023-05-17T02:45:17.598Z,3.30
2023-05-17T02:47:45.922Z,2.90
2023-05-17T02:50:12.848Z,3.30
2023-05-17T02:52:39.679Z,3.10
2023-05-17T02:55:07.223Z,3.20
2023-05-17T02:57:34.256Z,3.20
2023-05-17T03:00:01.071Z,3.00
2023-05-17T03:02:28.830Z,3.70
2023-05-17T03:04:55.790Z,3.30
2023-05-17T03:07:22.960Z,3.20
2023-05-17T03:09:50.002Z,2.70
2023-05-17T03:12:17.365Z,3.40
2023-05-17T03:14:44.268Z,3.40
2023-05-17T03:17:12.073Z,3.00
2023-05-17T03:19:39.928Z,3.40
2023-05-17T03:22:06.825Z,3.40
2023-05-17T03:24:34.248Z,3.40
2023-05-17T03:27:01.304Z,3.30
2023-05-17T03:29:28.129Z,3.40
2023-05-17T03:31:55.090Z,3.00
2023-05-17T03:34:22.263Z,3.70
2023-05-17T03:36:49.325Z,3.90
2023-05-17T03:39:16.544Z,3.60
2023-05-17T03:41:43.587Z,3.30
2023-05-17T03:44:10.742Z,3.50
2023-05-17T03:46:37.700Z,3.80
2023-05-17T03:49:05.179Z,3.40
2023-05-17T03:51:33.367Z,3.40
2023-05-17T03:54:01.134Z,3.50
2023-05-17T03:56:29.349Z,3.30
2023-05-17T03:58:56.221Z,3.30
2023-05-17T04:01:23.400Z,3.30
2023-05-17T04:03:50.485Z,3.30
2023-05-17T04:06:19.656Z,3.40
2023-05-17T04:08:46.648Z,3.50
2023-05-17T04:11:13.871Z,3.40
2023-05-17T04:13:41.418Z,3.20
2023-05-17T04:16:11.392Z,3.40
2023-05-17T04:18:40.572Z,3.00
2023-05-17T04:21:07.510Z,3.70
2023-05-17T04:23:35.003Z,3.20
2023-05-17T04:26:03.232Z,3.10
2023-05-17T04:28:31.727Z,3.40
2023-05-17T04:31:00.330Z,3.30
2023-05-17T04:33:27.620Z,3.60
2023-05-17T04:35:55.196Z,3.30
2023-05-17T04:38:23.984Z,3.70
2023-05-17T04:40:51.321Z,3.30
2023-05-17T04:43:18.722Z,3.50
2023-05-17T04:45:46.836Z,3.30
2023-05-17T04:48:15.710Z,3.10
2023-05-17T04:50:45.709Z,3.90
2023-05-17T04:53:12.484Z,3.90
2023-05-17T04:55:39.649Z,3.40
2023-05-17T04:58:06.659Z,3.90
2023-05-17T05:00:33.836Z,3.90
2023-05-17T05:03:05.033Z,4.30
2023-05-17T05:05:32.463Z,4.40
2023-05-17T05:07:59.472Z,4.40
2023-05-17T05:10:28.959Z,4.10
2023-05-17T05:12:56.321Z,4.40
2023-05-17T05:15:23.517Z,4.30
2023-05-17T05:17:56.380Z,4.30
2023-05-17T05:20:24.667Z,4.30
2023-05-17T05:22:53.521Z,4.20
2023-05-17T05:25:21.874Z,4.40
2023-05-17T05:27:50.647Z,4.30
2023-05-17T05:30:22.386Z,4.20
2023-05-17T05:32:51.864Z,4.10
2023-05-17T05:35:20.204Z,4.40
2023-05-17T05:37:53.841Z,4.20
2023-05-17T05:40:23.001Z,4.00
2023-05-17T05:42:50.109Z,4.40
2023-05-17T05:45:17.069Z,4.60
2023-05-17T05:50:53.684Z,4.00
2023-05-17T05:53:20.706Z,4.00
2023-05-17T05:55:52.462Z,4.00
2023-05-17T05:58:23.834Z,3.90
2023-05-17T06:00:51.485Z,4.00
2023-05-17T06:03:18.265Z,3.60
2023-05-17T06:05:45.437Z,4.10
2023-05-17T06:08:12.602Z,3.90
2023-05-17T06:10:39.498Z,3.70
2023-05-17T06:13:06.308Z,4.00
2023-05-17T06:15:33.405Z,4.00
2023-05-17T06:18:00.526Z,3.90
2023-05-17T06:20:27.739Z,3.60
2023-05-17T06:22:54.818Z,3.70
2023-05-17T06:25:21.954Z,3.60
2023-05-17T06:27:48.732Z,3.90
2023-05-17T06:30:15.761Z,3.90
2023-05-17T06:32:45.708Z,3.90
2023-05-17T06:35:12.688Z,3.60
2023-05-17T06:37:39.540Z,3.80
2023-05-17T06:40:16.025Z,3.20
2023-05-17T06:42:44.004Z,3.30
2023-05-17T06:45:11.966Z,3.70
2023-05-17T06:47:39.174Z,3.00
2023-05-17T06:50:07.422Z,3.40
2023-05-17T06:52:35.204Z,3.90
2023-05-17T06:55:02.079Z,3.70
2023-05-17T06:57:29.021Z,3.40
2023-05-17T06:59:56.004Z,3.40
2023-05-17T07:02:22.813Z,3.40
2023-05-17T07:04:50.108Z,3.20
2023-05-17T07:07:17.164Z,4.10
2023-05-17T07:09:44.428Z,3.90
2023-05-17T07:12:11.744Z,3.60
2023-05-17T07:14:40.728Z,3.50
2023-05-17T07:17:07.753Z,3.50
2023-05-17T07:19:35.269Z,3.50
2023-05-17T07:22:02.480Z,3.10
2023-05-17T07:24:30.180Z,3.40
2023-05-17T07:26:59.664Z,3.60
2023-05-17T07:29:26.468Z,3.20
2023-05-17T07:31:53.252Z,3.10
2023-05-17T07:34:20.188Z,3.30
2023-05-17T07:36:47.040Z,3.80
2023-05-17T07:39:13.805Z,3.70
2023-05-17T07:41:40.618Z,3.10
2023-05-17T07:44:07.514Z,3.60
2023-05-17T07:46:34.350Z,3.60
2023-05-17T07:49:01.393Z,3.00
2023-05-17T07:51:28.413Z,3.30
2023-05-17T07:53:55.167Z,3.40
2023-05-17T07:56:22.007Z,3.30
2023-05-17T08:02:10.033Z,3.50
2023-05-17T08:04:36.993Z,3.10
2023-05-17T08:07:03.908Z,3.50
2023-05-17T08:09:33.218Z,3.40
2023-05-17T08:12:00.211Z,3.60
2023-05-17T08:14:27.198Z,3.00
2023-05-17T08:16:53.976Z,3.60
2023-05-17T08:19:20.936Z,3.70
2023-05-17T08:21:49.303Z,3.80
2023-05-17T08:24:17.675Z,3.90
2023-05-17T08:26:44.603Z,3.40
2023-05-17T08:29:11.466Z,4.20
2023-05-17T08:31:42.724Z,3.90
2023-05-17T08:34:10.272Z,3.70
2023-05-17T08:36:37.954Z,3.50
2023-05-17T08:39:05.121Z,3.90
2023-05-17T08:41:32.859Z,3.70
2023-05-17T08:44:00.136Z,3.90
2023-05-17T08:46:27.006Z,3.80
2023-05-17T08:48:59.995Z,3.50
2023-05-17T08:51:27.363Z,3.40
2023-05-17T08:53:55.260Z,3.80
2023-05-17T08:56:23.181Z,3.60
2023-05-17T08:58:57.163Z,3.90
2023-05-17T09:01:26.428Z,3.80
2023-05-17T09:03:54.541Z,4.10
2023-05-17T09:06:22.487Z,3.40
2023-05-17T09:08:53.463Z,3.60
2023-05-17T09:11:31.322Z,3.80
2023-05-17T09:14:03.143Z,3.70
2023-05-17T09:16:36.636Z,3.70
2023-05-17T09:19:07.792Z,3.80
2023-05-17T09:24:07.181Z,4.00
2023-05-17T09:26:45.457Z,3.60
2023-05-17T09:29:13.844Z,3.90
2023-05-17T09:31:42.364Z,3.30
2023-05-17T09:34:10.931Z,3.60
2023-05-17T09:36:38.542Z,4.00
2023-05-17T09:39:06.733Z,3.60
2023-05-17T09:41:39.863Z,4.40
2023-05-17T09:44:09.424Z,3.80
2023-05-17T09:46:36.751Z,3.50
2023-05-17T09:49:04.262Z,3.50
2023-05-17T09:51:42.609Z,4.10
2023-05-17T09:54:13.530Z,4.00
2023-05-17T09:56:40.534Z,4.10
2023-05-17T09:59:15.307Z,3.80
2023-05-17T10:01:42.808Z,3.80
2023-05-17T10:04:10.708Z,4.60
2023-05-17T10:09:13.094Z,4.20
2023-05-17T10:11:40.599Z,4.20
2023-05-17T10:14:32.089Z,4.30
2023-05-17T10:16:59.114Z,4.20
2023-05-17T10:19:26.256Z,3.70
2023-05-17T10:21:53.399Z,4.50
2023-05-17T10:24:20.940Z,3.80
2023-05-17T10:26:52.543Z,3.70
2023-05-17T10:29:21.421Z,4.00
2023-05-17T10:31:48.973Z,3.90
2023-05-17T10:34:16.121Z,4.00
2023-05-17T10:36:44.231Z,3.80
2023-05-17T10:39:11.217Z,3.90
2023-05-17T10:41:43.264Z,3.90
2023-05-17T10:44:12.567Z,4.00
2023-05-17T10:46:39.872Z,3.60
2023-05-17T10:49:07.172Z,4.00
2023-05-17T10:51:34.763Z,3.60
2023-05-17T10:54:04.741Z,3.30
2023-05-17T10:56:32.412Z,3.50
2023-05-17T10:59:18.678Z,3.60
2023-05-17T11:01:57.883Z,3.70
2023-05-17T11:04:32.566Z,3.40
2023-05-17T11:07:19.365Z,3.60
2023-05-17T11:09:47.056Z,3.50
2023-05-17T11:12:14.360Z,3.30
2023-05-17T11:14:54.204Z,3.60
2023-05-17T11:17:34.086Z,3.10
2023-05-17T11:20:02.734Z,3.10
2023-05-17T11:22:37.176Z,3.40
2023-05-17T11:25:07.546Z,2.90
2023-05-17T11:27:49.029Z,3.50
2023-05-17T11:30:19.533Z,3.20
2023-05-17T11:32:47.588Z,3.00
2023-05-17T11:35:14.777Z,3.30
2023-05-17T11:37:41.640Z,3.00
2023-05-17T11:40:10.426Z,2.90
2023-05-17T11:42:38.266Z,3.00
2023-05-17T11:45:06.258Z,3.10
2023-05-17T11:47:33.582Z,2.40
2023-05-17T11:50:01.839Z,2.30
2023-05-17T11:52:29.478Z,3.10
2023-05-17T11:54:59.934Z,2.40
2023-05-17T11:57:35.520Z,2.80
2023-05-17T12:00:05.670Z,2.50
2023-05-17T12:02:41.868Z,2.90
2023-05-17T12:05:09.441Z,2.60
2023-05-17T12:07:37.483Z,2.70
2023-05-17T12:10:06.014Z,2.50
2023-05-17T12:12:32.925Z,2.80
2023-05-17T12:14:59.748Z,2.40
2023-05-17T12:17:31.789Z,2.40
2023-05-17T12:20:08.139Z,2.30
2023-05-17T12:22:35.238Z,2.40
2023-05-17T12:25:02.075Z,2.50
2023-05-17T12:27:29.217Z,2.60
2023-05-17T12:29:56.550Z,2.60
2023-05-17T12:32:23.538Z,2.50
2023-05-17T12:34:50.581Z,2.10
2023-05-17T12:37:17.377Z,2.20
2023-05-17T12:39:44.205Z,2.50
2023-05-17T12:42:11.309Z,2.40
2023-05-17T12:44:38.157Z,2.10
2023-05-17T12:47:05.152Z,2.40
2023-05-17T12:49:37.120Z,2.60
2023-05-17T12:52:05.346Z,2.50
2023-05-17T12:54:32.667Z,2.60
2023-05-17T12:56:59.511Z,2.20
2023-05-17T12:59:26.558Z,2.10
2023-05-17T13:01:58.105Z,2.50
2023-05-17T13:04:32.685Z,2.20
2023-05-17T13:07:04.470Z,2.20
2023-05-17T13:09:32.586Z,2.30
2023-05-17T13:12:01.313Z,2.20
2023-05-17T13:14:35.008Z,2.40
2023-05-17T13:17:06.048Z,2.50
2023-05-17T13:19:33.669Z,2.30
2023-05-17T13:22:00.601Z,2.10
2023-05-17T13:24:28.184Z,2.10
2023-05-17T13:26:55.270Z,2.40
2023-05-17T13:29:35.357Z,2.70
2023-05-17T13:32:06.834Z,2.30
2023-05-17T13:34:33.875Z,2.10
2023-05-17T13:37:00.850Z,2.00
2023-05-17T13:39:28.349Z,1.90
2023-05-17T13:41:55.130Z,2.00
2023-05-17T13:44:22.002Z,2.00
2023-05-17T13:46:48.852Z,2.20
2023-05-17T13:49:15.994Z,2.00
2023-05-17T13:51:43.155Z,1.90
2023-05-17T13:54:10.767Z,2.20
2023-05-17T13:56:37.606Z,2.50
2023-05-17T13:59:04.677Z,2.50
2023-05-17T14:01:32.176Z,2.40
2023-05-17T14:06:27.653Z,2.20
2023-05-17T14:08:56.044Z,2.30
2023-05-17T14:11:22.955Z,2.30
2023-05-17T14:13:50.149Z,2.40
2023-05-17T14:16:17.273Z,2.10
2023-05-17T14:18:45.999Z,2.60
2023-05-17T14:21:12.921Z,2.50
2023-05-17T14:23:39.938Z,2.30
2023-05-17T14:26:07.680Z,2.10
2023-05-17T14:28:37.877Z,2.70
2023-05-17T14:31:09.080Z,2.50
2023-05-17T14:33:36.280Z,2.30
2023-05-17T14:36:06.133Z,2.70
2023-05-17T14:38:32.973Z,2.40
2023-05-17T14:41:01.051Z,2.60
2023-05-17T14:43:29.009Z,2.40
2023-05-17T14:45:56.094Z,2.20
2023-05-17T14:48:23.046Z,2.40
2023-05-17T14:50:50.130Z,2.40
2023-05-17T14:53:17.244Z,2.40
2023-05-17T15:03:24.010Z,2.50
2023-05-17T15:05:55.548Z,2.30
2023-05-17T15:08:22.945Z,2.50
2023-05-17T15:10:50.462Z,2.20
2023-05-17T15:13:17.617Z,2.00
2023-05-17T15:15:44.820Z,2.40
2023-05-17T15:18:11.771Z,2.00
2023-05-17T15:20:38.698Z,2.90
2023-05-17T15:23:05.755Z,2.00
2023-05-17T15:25:33.211Z,2.30
2023-05-17T15:28:00.052Z,2.10
2023-05-17T15:30:30.286Z,2.40
2023-05-17T15:32:58.219Z,2.40
2023-05-17T15:35:25.965Z,2.40
2023-05-17T15:37:53.696Z,2.40
2023-05-17T15:40:25.114Z,3.20
2023-05-17T15:42:52.703Z,2.40
2023-05-17T15:45:21.462Z,2.50
2023-05-17T15:47:49.513Z,2.90
2023-05-17T15:50:16.904Z,2.90
2023-05-17T15:52:44.194Z,2.80
2023-05-17T15:55:11.276Z,3.10
2023-05-17T15:57:38.073Z,2.90
2023-05-17T16:00:05.642Z,3.00
2023-05-17T16:02:32.406Z,2.80
2023-05-17T16:05:01.253Z,3.10
2023-05-17T16:07:30.244Z,2.80
2023-05-17T16:09:57.737Z,3.20
2023-05-17T16:12:24.819Z,2.50
2023-05-17T16:14:52.147Z,3.10
2023-05-17T16:17:19.320Z,3.00
2023-05-17T16:19:47.437Z,3.70
2023-05-17T16:22:14.424Z,3.10
2023-05-17T16:24:41.966Z,2.80
2023-05-17T16:27:08.867Z,3.10
2023-05-17T16:29:39.918Z,2.90
2023-05-17T16:32:07.806Z,3.00
2023-05-17T16:34:34.649Z,3.30
2023-05-17T16:37:01.750Z,3.10
2023-05-17T16:39:28.884Z,3.50
2023-05-17T16:41:56.105Z,3.00
2023-05-17T16:44:22.997Z,3.40
2023-05-17T16:46:50.671Z,3.20
2023-05-17T16:49:17.545Z,3.60
2023-05-17T16:51:45.459Z,3.50
2023-05-17T16:54:12.278Z,3.20
2023-05-17T16:56:39.280Z,3.50
2023-05-17T16:59:06.140Z,3.20
2023-05-17T17:01:33.174Z,3.40
2023-05-17T17:04:00.111Z,3.30
2023-05-17T17:06:27.193Z,3.10
2023-05-17T17:08:54.034Z,3.50
2023-05-17T17:11:21.867Z,3.20
2023-05-17T17:13:49.436Z,3.40
2023-05-17T17:16:16.343Z,3.10
2023-05-17T17:18:43.639Z,3.10
2023-05-17T17:21:10.532Z,3.20
2023-05-17T17:23:37.945Z,3.40
2023-05-17T17:26:05.030Z,3.20
2023-05-17T17:28:31.833Z,3.30
2023-05-17T17:30:58.695Z,3.40
2023-05-17T17:33:25.551Z,3.20
2023-05-17T17:35:52.466Z,3.50
2023-05-17T17:38:19.449Z,3.40
2023-05-17T17:40:46.351Z,3.70
2023-05-17T17:43:13.447Z,3.60
2023-05-17T17:45:40.372Z,3.80
2023-05-17T17:48:07.248Z,3.80
2023-05-17T17:50:35.202Z,3.50
2023-05-17T17:53:02.082Z,3.70
2023-05-17T17:55:28.996Z,3.30
2023-05-17T17:57:55.963Z,3.80
2023-05-17T18:00:23.015Z,3.60
2023-05-17T18:02:49.832Z,3.60
2023-05-17T18:08:12.511Z,4.20
2023-05-17T18:10:39.490Z,3.50
2023-05-17T18:13:06.721Z,3.60
2023-05-17T18:15:33.722Z,3.60
2023-05-17T18:18:00.850Z,3.70
2023-05-17T18:20:27.801Z,4.20
2023-05-17T18:22:55.182Z,4.20
2023-05-17T18:25:22.173Z,3.90
2023-05-17T18:27:48.980Z,4.00
2023-05-17T18:30:16.988Z,3.70
2023-05-17T18:32:44.290Z,3.90
2023-05-17T18:35:11.429Z,4.80
2023-05-17T18:37:38.339Z,5.50
2023-05-17T18:40:06.292Z,5.20
2023-05-17T18:42:33.232Z,4.50
2023-05-17T18:45:01.065Z,4.10
2023-05-17T18:47:28.123Z,4.60
2023-05-17T18:49:55.061Z,4.50
2023-05-17T18:52:21.858Z,4.40
2023-05-17T18:54:48.715Z,4.00
2023-05-17T18:57:15.546Z,4.30
2023-05-17T18:59:43.053Z,4.20
2023-05-17T19:02:09.881Z,4.40
2023-05-17T19:04:36.880Z,4.60
2023-05-17T19:07:04.149Z,4.60
2023-05-17T19:09:33.581Z,5.30
2023-05-17T19:12:01.200Z,5.30
2023-05-17T19:14:28.198Z,5.80
2023-05-17T19:16:57.057Z,6.50
2023-05-17T19:19:24.853Z,6.00
2023-05-17T19:21:51.717Z,5.90
2023-05-17T19:24:18.769Z,6.30
2023-05-17T19:26:45.744Z,8.70
2023-05-17T19:29:12.558Z,7.20
2023-05-17T19:31:39.451Z,7.50
2023-05-17T19:34:06.468Z,5.30
2023-05-17T19:36:33.445Z,5.60
2023-05-17T19:39:00.445Z,5.00
2023-05-17T19:41:27.462Z,5.30
2023-05-17T19:43:54.694Z,7.00
2023-05-17T19:46:21.763Z,6.00
2023-05-17T19:48:49.379Z,6.60
2023-05-17T19:51:16.253Z,6.90
2023-05-17T19:53:52.320Z,9.80
2023-05-17T19:56:19.753Z,13.60
2023-05-17T19:58:46.665Z,7.10
2023-05-17T20:01:13.502Z,6.50
2023-05-17T20:03:41.089Z,6.90
2023-05-17T20:06:11.156Z,11.30
2023-05-17T20:08:38.171Z,15.00
2023-05-17T20:11:06.092Z,14.30
2023-05-17T20:13:34.252Z,12.20
2023-05-17T20:16:01.428Z,9.30
2023-05-17T20:18:30.184Z,8.30
2023-05-17T20:20:57.348Z,9.70
2023-05-17T20:23:24.165Z,9.10
2023-05-17T20:25:51.151Z,8.60
2023-05-17T20:28:18.259Z,7.50
2023-05-17T20:30:45.722Z,7.30
2023-05-17T20:33:12.640Z,6.70
2023-05-17T20:35:39.591Z,6.20
2023-05-17T20:38:06.413Z,10.20
2023-05-17T20:40:33.388Z,9.10
2023-05-17T20:43:00.332Z,6.10
2023-05-17T20:45:29.778Z,6.60
2023-05-17T20:47:57.163Z,5.80
2023-05-17T20:50:24.346Z,6.70
2023-05-17T20:52:51.455Z,5.60
2023-05-17T20:55:18.274Z,5.70
2023-05-17T20:57:45.242Z,6.10
2023-05-17T21:00:12.664Z,5.60
2023-05-17T21:02:39.606Z,5.20
2023-05-17T21:05:06.541Z,5.30
2023-05-17T21:07:34.917Z,5.00
2023-05-17T21:10:01.899Z,4.80
2023-05-17T21:12:28.768Z,5.30
2023-05-17T21:15:14.488Z,5.90
2023-05-17T21:17:42.475Z,6.20
2023-05-17T21:20:10.012Z,6.80
2023-05-17T21:22:37.600Z,7.40
2023-05-17T21:25:05.312Z,15.40
2023-05-17T21:27:34.112Z,16.70
2023-05-17T21:30:01.687Z,13.70
2023-05-17T21:32:28.773Z,13.60
2023-05-17T21:34:55.691Z,10.00
2023-05-17T21:37:22.447Z,7.90
2023-05-17T21:39:49.300Z,9.90
2023-05-17T21:42:16.460Z,11.10
2023-05-17T21:44:43.251Z,10.80
2023-05-17T21:47:10.394Z,15.00
2023-05-17T21:49:37.299Z,19.90
2023-05-17T21:52:04.843Z,20.40
2023-05-17T21:54:31.725Z,20.20
2023-05-17T21:56:58.536Z,19.70
2023-05-17T21:59:25.513Z,17.90
2023-05-17T22:01:54.993Z,13.60
2023-05-17T22:04:22.104Z,11.10
2023-05-17T22:06:49.110Z,9.90
2023-05-17T22:09:15.930Z,7.90
2023-05-17T22:11:42.742Z,7.30
2023-05-17T22:14:09.736Z,7.10
2023-05-17T22:16:36.700Z,7.30
2023-05-17T22:19:04.408Z,6.90
2023-05-17T22:21:32.229Z,6.10
2023-05-17T22:23:59.293Z,6.60
2023-05-17T22:26:27.825Z,6.70
2023-05-17T22:28:55.845Z,6.50
2023-05-17T22:31:22.837Z,6.00
2023-05-17T22:33:50.445Z,6.20
2023-05-17T22:36:17.965Z,6.70
2023-05-17T22:38:44.812Z,6.30
2023-05-17T22:41:11.989Z,6.60
2023-05-17T22:43:39.448Z,6.10
2023-05-17T22:46:06.403Z,6.60
2023-05-17T22:48:33.659Z,6.70
2023-05-17T22:51:03.476Z,6.20
2023-05-17T22:53:30.792Z,6.50
2023-05-17T22:55:57.859Z,5.90
2023-05-17T22:58:24.817Z,5.60
2023-05-17T23:00:52.315Z,5.40
2023-05-17T23:03:19.523Z,5.80
2023-05-17T23:05:46.447Z,5.60
2023-05-17T23:08:15.308Z,5.30
2023-05-17T23:10:45.714Z,4.90
2023-05-17T23:13:12.741Z,4.20
2023-05-17T23:15:40.853Z,4.40
2023-05-17T23:18:08.154Z,3.90
2023-05-17T23:20:35.190Z,4.20
2023-05-17T23:23:02.250Z,4.30
2023-05-17T23:25:29.397Z,4.60
2023-05-17T23:27:59.637Z,4.20
2023-05-17T23:30:26.521Z,4.00
2023-05-17T23:32:55.287Z,3.30
2023-05-17T23:35:25.294Z,3.00
2023-05-17T23:37:52.089Z,3.00
2023-05-17T23:40:18.940Z,2.90
2023-05-17T23:42:46.291Z,2.50
2023-05-17T23:45:13.124Z,2.10
2023-05-17T23:47:41.026Z,2.10
2023-05-17T23:50:11.916Z,2.10
2023-05-17T23:52:41.333Z,2.20
2023-05-17T23:55:08.953Z,1.50
2023-05-17T23:57:35.900Z,1.40
